Northport, Nebraska
Current Conditions -  °F | °C
As of 4:53 PM on Sunday 21 Dec 2014 (Local Time) from KAIA Reporting Station
Overcast Overcast  
Wind Chill: 33°   Ceiling: 6000
Heat Index: 39°   Visibility: 10mi
Dew Point: 32°   Wind: 8mph
Humidity: 76%   Direction: 300°WNW
Pressure: 29.47"   Gusts: NA
Location:  41.7379°N, 102.935°W
Report Text: KAIA 212353Z AUTO 30007KT 10SM OVC060 04/00 A2947 RMK AO2 SLP994 T00390000 10050 20028 53009
Loading
Personal Weather Stations






























Interactive Weather Map New forecast layout! Learn more

10-Day Weather Forecast

Advertisements
Track Severe Weather on mobile